Time;durP1;ratioP1;P1;durP2;ratioP2;P2;SDS_P1;SDS_P2;PMS_P1;PMS_P2;Temp;Humidity;BMP_temperature;BMP_pressure;BME280_temperature;BME280_humidity;BME280_pressure;Samples;Min_cycle;Max_cycle;Signal;HPM_P1;HPM_P2
2024/04/23 00:00:11;;;;;;;;;;;4.00;53.00;;;;;;5453596;26;19929;-70
2024/04/23 00:02:37;;;;;;;;;;;4.00;55.80;;;;;;5453396;26;20288;-70
2024/04/23 00:05:02;;;;;;;;;;;4.00;58.30;;;;;;5453391;26;19935;-70
2024/04/23 00:07:28;;;;;;;;;;;4.00;62.90;;;;;;5453580;26;19928;-70
2024/04/23 00:09:53;;;;;;;;;;;4.00;68.10;;;;;;5453541;26;19956;-70
2024/04/23 00:12:18;;;;;;;;;;;4.00;70.80;;;;;;5452474;26;19928;-70
2024/04/23 00:14:44;;;;;;;;;;;4.10;73.80;;;;;;5453397;26;20366;-70
2024/04/23 00:17:09;;;;;;;;;;;4.00;73.50;;;;;;5453145;26;19997;-70
2024/04/23 00:19:35;;;;;;;;;;;4.00;72.90;;;;;;5453263;26;19928;-70
2024/04/23 00:22:01;;;;;;;;;;;4.10;70.90;;;;;;5452870;26;19940;-70
2024/04/23 00:24:26;;;;;;;;;;;4.10;63.30;;;;;;5453167;26;19934;-70
2024/04/23 00:26:51;;;;;;;;;;;3.70;66.00;;;;;;5453243;26;19936;-70
2024/04/23 00:29:17;;;;;;;;;;;3.80;70.60;;;;;;5453199;26;19929;-70
2024/04/23 00:31:42;;;;;;;;;;;3.70;73.30;;;;;;5452772;26;19997;-70
2024/04/23 00:34:08;;;;;;;;;;;3.60;72.90;;;;;;5453069;26;19996;-70
2024/04/23 00:36:33;;;;;;;;;;;3.50;72.90;;;;;;5452727;26;19929;-70
2024/04/23 00:38:59;;;;;;;;;;;3.50;75.40;;;;;;5453082;26;20425;-70
2024/04/23 00:41:24;;;;;;;;;;;3.50;74.90;;;;;;5452677;26;19940;-71
2024/04/23 00:43:50;;;;;;;;;;;3.60;82.30;;;;;;5452927;26;19928;-70
2024/04/23 00:46:15;;;;;;;;;;;3.60;82.00;;;;;;5453068;26;19943;-70
2024/04/23 00:48:41;;;;;;;;;;;3.50;79.60;;;;;;5453064;26;19929;-70
2024/04/23 00:51:07;;;;;;;;;;;3.50;81.90;;;;;;5452534;26;20317;-70
2024/04/23 00:53:32;;;;;;;;;;;3.50;82.90;;;;;;5452590;26;19999;-71
2024/04/23 00:55:58;;;;;;;;;;;3.50;84.60;;;;;;5452637;26;19996;-70
2024/04/23 00:58:24;;;;;;;;;;;3.50;88.00;;;;;;5452765;26;19936;-70
2024/04/23 01:00:49;;;;;;;;;;;3.50;91.40;;;;;;5452580;26;19935;-70
2024/04/23 01:03:15;;;;;;;;;;;3.60;91.10;;;;;;5452862;26;19993;-70
2024/04/23 01:05:40;;;;;;;;;;;3.60;88.60;;;;;;5452919;26;20263;-70
2024/04/23 01:08:06;;;;;;;;;;;3.50;82.40;;;;;;5452534;26;19930;-70
2024/04/23 01:10:31;;;;;;;;;;;3.50;85.00;;;;;;5452525;26;19928;-70
2024/04/23 01:12:57;;;;;;;;;;;3.40;81.50;;;;;;5452199;26;19929;-70
2024/04/23 01:15:23;;;;;;;;;;;3.40;80.50;;;;;;5452614;26;19929;-70
2024/04/23 01:17:51;;;;;;;;;;;3.30;81.70;;;;;;5452435;26;19937;-70
2024/04/23 01:20:17;;;;;;;;;;;3.20;85.90;;;;;;5440692;26;19935;-70
2024/04/23 01:22:50;;;;;;;;;;;3.20;88.80;;;;;;5415030;26;20265;-71
2024/04/23 01:25:18;;;;;;;;;;;3.00;89.00;;;;;;5416937;26;19935;-70
2024/04/23 01:27:44;;;;;;;;;;;3.10;93.20;;;;;;5416585;26;19929;-70
2024/04/23 01:30:10;;;;;;;;;;;3.10;94.10;;;;;;5416630;26;19929;-70
2024/04/23 01:32:37;;;;;;;;;;;3.10;93.70;;;;;;5416058;26;19929;-70
2024/04/23 01:35:03;;;;;;;;;;;3.10;93.90;;;;;;5416349;26;19929;-70
2024/04/23 01:37:29;;;;;;;;;;;3.20;94.00;;;;;;5416215;26;19936;-71
2024/04/23 01:39:56;;;;;;;;;;;3.20;94.70;;;;;;5416333;26;20376;-70
2024/04/23 01:42:22;;;;;;;;;;;3.20;94.10;;;;;;5416297;26;19929;-70
2024/04/23 01:44:48;;;;;;;;;;;3.10;92.30;;;;;;5416276;26;19929;-70
2024/04/23 01:47:13;;;;;;;;;;;3.00;90.90;;;;;;5416143;26;19940;-70
2024/04/23 01:49:39;;;;;;;;;;;3.00;91.30;;;;;;5416070;26;20010;-70
2024/04/23 01:52:05;;;;;;;;;;;3.00;91.20;;;;;;5415745;26;20415;-70
2024/04/23 01:54:30;;;;;;;;;;;2.90;90.50;;;;;;5416109;26;20449;-70
2024/04/23 01:56:56;;;;;;;;;;;2.90;91.00;;;;;;5415792;26;19929;-70
2024/04/23 01:59:21;;;;;;;;;;;2.80;91.10;;;;;;5415978;26;20364;-70
2024/04/23 02:01:50;;;;;;;;;;;2.70;91.10;;;;;;5415739;26;20376;-70
2024/04/23 02:04:16;;;;;;;;;;;2.60;91.50;;;;;;5415833;26;19929;-70
2024/04/23 02:06:42;;;;;;;;;;;2.70;92.60;;;;;;5440844;26;19932;-70
2024/04/23 02:09:08;;;;;;;;;;;2.60;97.40;;;;;;5451773;26;19932;-70
2024/04/23 02:11:34;;;;;;;;;;;2.70;98.10;;;;;;5451203;26;19928;-70
2024/04/23 02:13:59;;;;;;;;;;;2.70;98.50;;;;;;5451575;26;19935;-70
2024/04/23 02:16:25;;;;;;;;;;;2.70;97.70;;;;;;5451688;26;19935;-70
2024/04/23 02:18:50;;;;;;;;;;;2.70;95.60;;;;;;5451223;26;19941;-70
2024/04/23 02:21:16;;;;;;;;;;;2.70;96.00;;;;;;5451039;26;19997;-70
2024/04/23 02:23:41;;;;;;;;;;;2.60;96.80;;;;;;5451470;26;19929;-70
2024/04/23 02:26:07;;;;;;;;;;;2.50;99.90;;;;;;5451426;26;19929;-70
2024/04/23 02:28:32;;;;;;;;;;;2.50;99.90;;;;;;5451350;26;19936;-70
2024/04/23 02:30:58;;;;;;;;;;;2.50;99.90;;;;;;5450969;26;20380;-70
2024/04/23 02:33:24;;;;;;;;;;;2.70;99.90;;;;;;5450897;26;19935;-70
2024/04/23 02:35:49;;;;;;;;;;;2.70;99.90;;;;;;5454598;26;20136;-70
2024/04/23 02:38:14;;;;;;;;;;;2.70;99.90;;;;;;5454500;26;19940;-70
2024/04/23 02:40:40;;;;;;;;;;;2.80;99.90;;;;;;5454754;26;20398;-70
2024/04/23 02:43:06;;;;;;;;;;;2.80;97.70;;;;;;5454359;26;19928;-70
2024/04/23 02:45:31;;;;;;;;;;;2.70;98.20;;;;;;5454740;26;20611;-70
2024/04/23 02:47:57;;;;;;;;;;;2.60;98.20;;;;;;5454512;26;19928;-70
2024/04/23 02:50:22;;;;;;;;;;;2.70;98.60;;;;;;5454522;26;20380;-71
2024/04/23 02:52:47;;;;;;;;;;;2.80;98.90;;;;;;5454146;26;20268;-70
2024/04/23 02:55:13;;;;;;;;;;;2.80;98.90;;;;;;5454434;26;20077;-70
2024/04/23 02:57:39;;;;;;;;;;;2.80;99.30;;;;;;5454401;26;20344;-70
2024/04/23 03:00:05;;;;;;;;;;;2.70;98.20;;;;;;5454628;26;19964;-70
2024/04/23 03:02:30;;;;;;;;;;;2.80;99.20;;;;;;5453904;26;19944;-70
2024/04/23 03:04:56;;;;;;;;;;;2.80;99.10;;;;;;5454421;26;20302;-71
2024/04/23 03:07:21;;;;;;;;;;;2.70;96.60;;;;;;5454364;26;19932;-70
2024/04/23 03:09:47;;;;;;;;;;;2.40;94.30;;;;;;5454337;26;20360;-70
2024/04/23 03:12:12;;;;;;;;;;;2.60;95.60;;;;;;5453876;26;19935;-70
2024/04/23 03:14:37;;;;;;;;;;;2.20;93.70;;;;;;5454124;26;19935;-70
2024/04/23 03:17:03;;;;;;;;;;;2.30;93.10;;;;;;5453789;26;20024;-70
2024/04/23 03:19:28;;;;;;;;;;;2.30;94.60;;;;;;5454175;26;19965;-70
2024/04/23 03:21:55;;;;;;;;;;;2.70;97.30;;;;;;5453784;26;19936;-70
2024/04/23 03:24:20;;;;;;;;;;;2.50;96.40;;;;;;5454014;26;19939;-70
2024/04/23 03:26:46;;;;;;;;;;;2.00;97.30;;;;;;5454418;26;19928;-70
2024/04/23 03:29:11;;;;;;;;;;;2.20;98.90;;;;;;5454121;26;19957;-70
2024/04/23 03:31:37;;;;;;;;;;;2.20;95.10;;;;;;5453476;26;19933;-70
2024/04/23 03:34:02;;;;;;;;;;;2.20;95.20;;;;;;5453806;26;19940;-70
2024/04/23 03:36:28;;;;;;;;;;;2.10;97.00;;;;;;5453954;26;19956;-70
2024/04/23 03:38:53;;;;;;;;;;;2.00;97.50;;;;;;5453576;26;19952;-70
2024/04/23 03:41:19;;;;;;;;;;;1.90;98.30;;;;;;5453524;26;19929;-70
2024/04/23 03:43:44;;;;;;;;;;;2.00;99.90;;;;;;5453873;26;20392;-70
2024/04/23 03:46:10;;;;;;;;;;;2.00;99.90;;;;;;5452708;26;19940;-70
2024/04/23 03:48:35;;;;;;;;;;;2.00;99.90;;;;;;5453682;26;19952;-70
2024/04/23 03:51:01;;;;;;;;;;;1.90;99.90;;;;;;5453438;26;19978;-70
2024/04/23 03:53:26;;;;;;;;;;;1.90;99.80;;;;;;5451797;26;19936;-70
2024/04/23 03:55:52;;;;;;;;;;;1.90;99.90;;;;;;5453691;26;19941;-70
2024/04/23 03:58:17;;;;;;;;;;;1.90;99.90;;;;;;5453504;26;19993;-70
2024/04/23 04:00:43;;;;;;;;;;;1.90;99.90;;;;;;5453816;26;19948;-70
2024/04/23 04:06:06;;;;;;;;;;;1.90;99.90;;;;;;5453748;26;20834;-70
2024/04/23 04:08:33;;;;;;;;;;;2.00;99.90;;;;;;5453720;26;19979;-70
2024/04/23 04:10:58;;;;;;;;;;;2.10;99.90;;;;;;5453171;26;19998;-70
2024/04/23 04:13:24;;;;;;;;;;;2.10;99.90;;;;;;5453537;26;20375;-70
2024/04/23 04:15:50;;;;;;;;;;;2.10;99.90;;;;;;5453364;26;20414;-70
2024/04/23 04:18:16;;;;;;;;;;;2.00;99.90;;;;;;5453301;26;19940;-70
2024/04/23 04:20:41;;;;;;;;;;;1.90;99.90;;;;;;5451711;26;19935;-70
2024/04/23 04:23:07;;;;;;;;;;;1.80;99.90;;;;;;5450913;26;19928;-70
2024/04/23 04:25:32;;;;;;;;;;;1.70;99.90;;;;;;5453391;26;19928;-70
2024/04/23 04:27:58;;;;;;;;;;;1.70;99.90;;;;;;5453478;26;19944;-70
2024/04/23 04:30:24;;;;;;;;;;;1.70;99.90;;;;;;5453257;26;19929;-70
2024/04/23 04:32:49;;;;;;;;;;;1.70;99.90;;;;;;5452646;26;19936;-70
2024/04/23 04:35:15;;;;;;;;;;;1.60;99.90;;;;;;5453066;26;20024;-70
2024/04/23 04:37:40;;;;;;;;;;;1.60;99.90;;;;;;5453233;26;20268;-70
2024/04/23 04:40:06;;;;;;;;;;;1.60;99.90;;;;;;5453087;26;19929;-70
2024/04/23 04:42:31;;;;;;;;;;;1.70;99.90;;;;;;5452485;26;19936;-70
2024/04/23 04:44:57;;;;;;;;;;;1.70;99.90;;;;;;5452795;26;19928;-70
2024/04/23 04:47:22;;;;;;;;;;;1.70;99.90;;;;;;5452949;26;19930;-70
2024/04/23 04:49:48;;;;;;;;;;;1.60;99.90;;;;;;5452985;26;20407;-71
2024/04/23 04:52:13;;;;;;;;;;;1.70;99.90;;;;;;5452452;26;19930;-71
2024/04/23 04:54:39;;;;;;;;;;;1.70;99.90;;;;;;5452780;26;20479;-71
2024/04/23 04:57:04;;;;;;;;;;;1.80;99.90;;;;;;5452775;26;19928;-71
2024/04/23 04:59:30;;;;;;;;;;;1.80;99.90;;;;;;5452569;26;20337;-71
2024/04/23 05:01:55;;;;;;;;;;;1.90;99.90;;;;;;5452464;26;19928;-71
2024/04/23 05:04:21;;;;;;;;;;;2.10;99.90;;;;;;5452621;26;19997;-70
2024/04/23 05:06:46;;;;;;;;;;;2.10;99.90;;;;;;5452808;26;19997;-71
2024/04/23 05:09:12;;;;;;;;;;;2.30;99.90;;;;;;5452689;26;20393;-71
2024/04/23 05:11:37;;;;;;;;;;;2.40;99.90;;;;;;5452370;26;19935;-71
2024/04/23 05:14:03;;;;;;;;;;;2.30;99.90;;;;;;5450604;26;20409;-70
2024/04/23 05:16:28;;;;;;;;;;;2.30;99.90;;;;;;5452610;26;19928;-72
2024/04/23 05:18:54;;;;;;;;;;;2.40;99.90;;;;;;5452324;26;19932;-72
2024/04/23 05:21:19;;;;;;;;;;;2.50;99.90;;;;;;5451979;26;19932;-71
2024/04/23 05:23:45;;;;;;;;;;;2.60;99.90;;;;;;5452096;26;19940;-70
2024/04/23 05:26:10;;;;;;;;;;;2.60;99.90;;;;;;5452335;26;19935;-72
2024/04/23 05:28:36;;;;;;;;;;;2.60;99.90;;;;;;5452452;26;19928;-70
2024/04/23 05:33:45;;;;;;;;;;;2.70;99.90;;;;;;5452245;26;19934;-70
2024/04/23 05:36:11;;;;;;;;;;;2.70;99.90;;;;;;5450586;26;20272;-70
2024/04/23 05:38:36;;;;;;;;;;;2.80;99.90;;;;;;5451995;26;20445;-70
2024/04/23 05:41:02;;;;;;;;;;;2.80;99.90;;;;;;5452008;26;19997;-70
2024/04/23 05:43:27;;;;;;;;;;;2.90;99.90;;;;;;5451996;26;19932;-70
2024/04/23 05:45:53;;;;;;;;;;;3.00;99.90;;;;;;5452495;26;20379;-70
2024/04/23 05:48:37;;;;;;;;;;;3.00;99.90;;;;;;5452069;26;19960;-70
2024/04/23 05:51:21;;;;;;;;;;;3.00;99.90;;;;;;5451794;26;19939;-70
2024/04/23 05:54:06;;;;;;;;;;;3.10;99.90;;;;;;5451919;26;20646;-70
2024/04/23 05:56:31;;;;;;;;;;;3.10;99.90;;;;;;5452125;26;20587;-70
2024/04/23 05:58:57;;;;;;;;;;;3.20;99.90;;;;;;5451495;26;19929;-70
2024/04/23 06:01:22;;;;;;;;;;;3.30;99.90;;;;;;5451463;26;19943;-70
2024/04/23 06:03:48;;;;;;;;;;;3.30;99.90;;;;;;5451549;26;19937;-70
2024/04/23 06:06:13;;;;;;;;;;;3.40;99.90;;;;;;5451820;26;20388;-70
2024/04/23 06:08:38;;;;;;;;;;;3.40;99.90;;;;;;5451033;26;19935;-70
2024/04/23 06:11:04;;;;;;;;;;;3.50;99.90;;;;;;5451272;26;19928;-70
2024/04/23 06:13:29;;;;;;;;;;;3.60;99.90;;;;;;5451522;26;19957;-70
2024/04/23 06:15:55;;;;;;;;;;;3.80;99.90;;;;;;5451890;26;19997;-70
2024/04/23 06:18:22;;;;;;;;;;;3.70;99.90;;;;;;5451288;26;20376;-70
2024/04/23 06:20:51;;;;;;;;;;;3.70;99.90;;;;;;5451104;26;19928;-71
2024/04/23 06:23:17;;;;;;;;;;;3.70;99.90;;;;;;5451383;26;19928;-71
2024/04/23 06:25:42;;;;;;;;;;;3.60;99.90;;;;;;5451788;26;19960;-71
2024/04/23 06:28:08;;;;;;;;;;;3.70;99.90;;;;;;5451334;26;19935;-72
2024/04/23 06:30:33;;;;;;;;;;;3.80;99.90;;;;;;5451362;26;20002;-72
2024/04/23 06:32:59;;;;;;;;;;;3.80;99.90;;;;;;5450668;26;19928;-71
2024/04/23 06:35:24;;;;;;;;;;;3.80;99.90;;;;;;5451229;26;19929;-72
2024/04/23 06:37:50;;;;;;;;;;;4.00;99.90;;;;;;5451158;26;19997;-71
2024/04/23 06:40:15;;;;;;;;;;;4.10;99.90;;;;;;5449210;26;19928;-71
2024/04/23 06:42:41;;;;;;;;;;;4.20;99.90;;;;;;5450647;26;19960;-69
2024/04/23 06:45:06;;;;;;;;;;;4.30;99.90;;;;;;5450915;26;19929;-72
2024/04/23 06:47:33;;;;;;;;;;;4.30;99.90;;;;;;5451127;26;19939;-69
2024/04/23 06:49:58;;;;;;;;;;;4.40;99.90;;;;;;5450988;26;19937;-69
2024/04/23 06:52:23;;;;;;;;;;;4.50;99.90;;;;;;5450433;26;19928;-69
2024/04/23 06:54:49;;;;;;;;;;;4.60;99.90;;;;;;5450810;26;19955;-69
2024/04/23 06:57:14;;;;;;;;;;;4.70;99.90;;;;;;5450859;26;19928;-72
2024/04/23 06:59:42;;;;;;;;;;;4.70;99.90;;;;;;5450891;26;19940;-69
2024/04/23 07:02:08;;;;;;;;;;;4.80;99.90;;;;;;5450396;26;20326;-69
2024/04/23 07:04:34;;;;;;;;;;;4.90;99.90;;;;;;5450977;26;19928;-71
2024/04/23 07:07:00;;;;;;;;;;;4.80;99.90;;;;;;5450698;26;19935;-71
2024/04/23 07:09:26;;;;;;;;;;;4.90;99.90;;;;;;5450771;26;19937;-72
2024/04/23 07:11:51;;;;;;;;;;;4.90;99.90;;;;;;5450066;26;19962;-71
2024/04/23 07:14:17;;;;;;;;;;;5.00;99.90;;;;;;5450511;26;19936;-71
2024/04/23 07:16:45;;;;;;;;;;;5.10;99.90;;;;;;5450438;26;19929;-72
2024/04/23 07:19:11;;;;;;;;;;;5.20;99.90;;;;;;5450342;26;19939;-73
2024/04/23 07:21:36;;;;;;;;;;;5.30;99.90;;;;;;5451745;26;19956;-72
2024/04/23 07:24:02;;;;;;;;;;;5.50;97.60;;;;;;5454359;26;19940;-71
2024/04/23 07:26:27;;;;;;;;;;;5.60;95.10;;;;;;5454107;26;20246;-72
2024/04/23 07:28:53;;;;;;;;;;;5.70;90.20;;;;;;5454216;26;19956;-73
2024/04/23 07:31:19;;;;;;;;;;;5.70;85.60;;;;;;5453641;26;20290;-72
2024/04/23 07:33:45;;;;;;;;;;;5.70;84.10;;;;;;5453998;26;19935;-72
2024/04/23 07:36:10;;;;;;;;;;;5.70;82.50;;;;;;5454023;26;19936;-73
2024/04/23 07:38:36;;;;;;;;;;;5.80;76.90;;;;;;5453887;26;19933;-71
2024/04/23 07:41:01;;;;;;;;;;;5.80;74.20;;;;;;5453808;26;19928;-71
2024/04/23 07:43:27;;;;;;;;;;;5.70;58.70;;;;;;5453831;26;19928;-71
2024/04/23 07:45:52;;;;;;;;;;;5.80;57.20;;;;;;5453753;26;20291;-71
2024/04/23 07:48:18;;;;;;;;;;;5.90;56.00;;;;;;5453666;26;19936;-70
2024/04/23 07:50:44;;;;;;;;;;;5.90;50.20;;;;;;5453924;26;20344;-71
2024/04/23 07:53:10;;;;;;;;;;;5.90;46.80;;;;;;5453239;26;19978;-71
2024/04/23 07:55:35;;;;;;;;;;;6.00;48.90;;;;;;5453783;26;19940;-71
2024/04/23 07:58:01;;;;;;;;;;;6.20;51.50;;;;;;5453764;26;19929;-71
2024/04/23 08:00:29;;;;;;;;;;;6.20;41.10;;;;;;5453423;26;19929;-71
2024/04/23 08:02:55;;;;;;;;;;;6.30;47.70;;;;;;5453310;26;19928;-71
2024/04/23 08:05:24;;;;;;;;;;;6.30;40.00;;;;;;5453509;26;19936;-71
2024/04/23 08:07:50;;;;;;;;;;;6.30;33.80;;;;;;5453710;26;19936;-71
2024/04/23 08:10:17;;;;;;;;;;;6.30;44.00;;;;;;5453447;26;20288;-71
2024/04/23 08:12:46;;;;;;;;;;;6.30;40.50;;;;;;5453141;26;20257;-71
2024/04/23 08:15:11;;;;;;;;;;;6.40;38.00;;;;;;5453373;26;19928;-71
2024/04/23 08:17:37;;;;;;;;;;;6.50;35.50;;;;;;5453432;26;19928;-71
2024/04/23 08:20:03;;;;;;;;;;;6.60;35.00;;;;;;5453173;26;19929;-71
2024/04/23 08:22:28;;;;;;;;;;;6.70;33.10;;;;;;5452979;26;19933;-71
2024/04/23 08:24:54;;;;;;;;;;;6.80;32.40;;;;;;5453249;26;19956;-71
2024/04/23 08:27:19;;;;;;;;;;;6.90;35.40;;;;;;5453388;26;20609;-71
2024/04/23 08:29:45;;;;;;;;;;;6.90;30.50;;;;;;5402352;26;19930;-71
2024/04/23 08:32:10;;;;;;;;;;;7.00;22.20;;;;;;5397208;26;19929;-71
2024/04/23 08:34:36;;;;;;;;;;;7.10;22.10;;;;;;5381725;26;19966;-71
2024/04/23 08:37:05;;;;;;;;;;;7.00;15.10;;;;;;5381689;26;19937;-71
2024/04/23 08:39:30;;;;;;;;;;;7.00;17.50;;;;;;5381475;26;19957;-71
2024/04/23 08:41:56;;;;;;;;;;;7.20;18.80;;;;;;5381269;26;19936;-69
2024/04/23 08:44:24;;;;;;;;;;;7.20;18.40;;;;;;5381539;26;20812;-70
2024/04/23 08:46:49;;;;;;;;;;;7.30;17.80;;;;;;5381694;26;19929;-70
2024/04/23 08:49:15;;;;;;;;;;;7.40;14.70;;;;;;5381629;26;19937;-70
2024/04/23 08:51:41;;;;;;;;;;;7.60;17.40;;;;;;5381184;26;19934;-70
2024/04/23 08:54:08;;;;;;;;;;;7.70;12.20;;;;;;5381489;26;19962;-70
2024/04/23 08:56:34;;;;;;;;;;;7.80;11.00;;;;;;5381463;26;19934;-70
2024/04/23 08:59:04;;;;;;;;;;;7.90;6.60;;;;;;5381306;26;19941;-69
2024/04/23 09:01:35;;;;;;;;;;;8.00;2.60;;;;;;5380895;26;20019;-69
2024/04/23 09:04:01;;;;;;;;;;;8.00;1.00;;;;;;5381433;26;19981;-70
2024/04/23 09:06:28;;;;;;;;;;;8.10;1.00;;;;;;5381304;26;19999;-73
2024/04/23 09:08:53;;;;;;;;;;;8.10;1.00;;;;;;5381288;26;20278;-70
2024/04/23 09:11:19;;;;;;;;;;;8.20;1.00;;;;;;5380931;26;19957;-70
2024/04/23 09:13:44;;;;;;;;;;;8.40;1.00;;;;;;5381266;26;19998;-70
2024/04/23 09:16:10;;;;;;;;;;;8.60;1.00;;;;;;5381207;26;19929;-70
2024/04/23 09:18:35;;;;;;;;;;;8.80;1.00;;;;;;5381234;26;19942;-70
2024/04/23 09:21:04;;;;;;;;;;;8.80;1.00;;;;;;5380263;26;20008;-71
2024/04/23 09:23:33;;;;;;;;;;;8.90;1.00;;;;;;5414522;26;19941;-69
2024/04/23 09:25:59;;;;;;;;;;;8.90;1.00;;;;;;5416589;26;19957;-67
2024/04/23 09:28:25;;;;;;;;;;;9.00;1.00;;;;;;5416742;26;19935;-68
2024/04/23 09:30:51;;;;;;;;;;;9.10;1.00;;;;;;5416063;26;20372;-68
2024/04/23 09:33:23;;;;;;;;;;;9.10;1.00;;;;;;5416109;26;20380;-68
2024/04/23 09:36:18;;;;;;;;;;;9.30;1.00;;;;;;5416771;26;19937;-68
2024/04/23 09:38:43;;;;;;;;;;;9.40;1.00;;;;;;5399221;26;19937;-71
2024/04/23 09:41:09;;;;;;;;;;;9.60;1.00;;;;;;5414246;26;19929;-68
2024/04/23 09:43:38;;;;;;;;;;;9.60;1.00;;;;;;5415465;26;19929;-68
2024/04/23 09:46:03;;;;;;;;;;;9.70;1.00;;;;;;5416394;26;19937;-68
2024/04/23 09:48:29;;;;;;;;;;;9.80;1.00;;;;;;5416213;26;20257;-69
2024/04/23 09:51:01;;;;;;;;;;;9.80;1.00;;;;;;5416058;26;20376;-68
2024/04/23 09:53:31;;;;;;;;;;;9.80;1.00;;;;;;5416250;26;19957;-68
2024/04/23 09:56:00;;;;;;;;;;;9.60;1.00;;;;;;5416135;26;20265;-68
2024/04/23 09:58:25;;;;;;;;;;;9.20;1.00;;;;;;5416100;26;19930;-67
2024/04/23 10:00:52;;;;;;;;;;;8.90;1.00;;;;;;5415457;26;19935;-68
2024/04/23 10:03:17;;;;;;;;;;;8.80;1.00;;;;;;5415680;26;19936;-67
2024/04/23 10:05:46;;;;;;;;;;;8.70;1.00;;;;;;5415870;26;19929;-71
2024/04/23 10:08:15;;;;;;;;;;;8.60;1.00;;;;;;5410288;26;19937;-70
2024/04/23 10:10:42;;;;;;;;;;;8.80;1.00;;;;;;5405875;26;19929;-71
2024/04/23 10:13:09;;;;;;;;;;;9.30;1.00;;;;;;5384864;26;19937;-70
2024/04/23 10:15:41;;;;;;;;;;;9.80;1.00;;;;;;5393494;26;19941;-71
2024/04/23 10:18:20;;;;;;;;;;;10.10;1.00;;;;;;5403572;26;19941;-71
2024/04/23 10:20:47;;;;;;;;;;;10.40;1.00;;;;;;5415333;26;19929;-70
2024/04/23 10:23:15;;;;;;;;;;;10.60;1.00;;;;;;5414666;26;19937;-70
2024/04/23 10:25:41;;;;;;;;;;;10.90;1.00;;;;;;5414987;26;19940;-69
2024/04/23 10:28:11;;;;;;;;;;;11.10;1.00;;;;;;5415640;26;19932;-72
2024/04/23 10:30:37;;;;;;;;;;;11.40;1.00;;;;;;5415204;26;19929;-69
2024/04/23 10:33:04;;;;;;;;;;;11.70;1.00;;;;;;5419993;26;19935;-70
2024/04/23 10:35:31;;;;;;;;;;;11.90;1.00;;;;;;5450879;26;19960;-70
2024/04/23 10:37:57;;;;;;;;;;;11.90;1.00;;;;;;5451378;26;20005;-71
2024/04/23 10:40:24;;;;;;;;;;;11.90;1.00;;;;;;5450896;26;19994;-69
2024/04/23 10:42:49;;;;;;;;;;;11.50;1.00;;;;;;5450410;26;19929;-69
2024/04/23 10:45:15;;;;;;;;;;;11.20;1.00;;;;;;5450847;26;20285;-69
2024/04/23 10:47:50;;;;;;;;;;;10.80;1.00;;;;;;5450908;26;19936;-72
2024/04/23 10:50:30;;;;;;;;;;;10.50;1.00;;;;;;5450891;26;19936;-69
2024/04/23 10:52:56;;;;;;;;;;;10.50;1.00;;;;;;5450662;26;20360;-69
2024/04/23 10:55:25;;;;;;;;;;;10.60;1.00;;;;;;5448377;26;19935;-70
2024/04/23 10:57:52;;;;;;;;;;;10.70;1.00;;;;;;5454573;26;19950;-69
2024/04/23 11:00:24;;;;;;;;;;;11.00;1.00;;;;;;5454217;26;20360;-70
2024/04/23 11:02:52;;;;;;;;;;;11.40;1.00;;;;;;5453575;26;19935;-69
2024/04/23 11:05:17;;;;;;;;;;;11.70;1.00;;;;;;5454005;26;20002;-69
2024/04/23 11:07:49;;;;;;;;;;;11.30;1.00;;;;;;5454474;26;19936;-69
2024/04/23 11:10:18;;;;;;;;;;;10.80;1.00;;;;;;5453746;26;19998;-69
2024/04/23 11:12:44;;;;;;;;;;;10.40;1.00;;;;;;5453792;26;19929;-69
2024/04/23 11:15:16;;;;;;;;;;;9.90;1.00;;;;;;5454207;26;20364;-69
2024/04/23 11:17:41;;;;;;;;;;;9.70;1.00;;;;;;5453996;26;19957;-71
2024/04/23 11:20:07;;;;;;;;;;;9.70;1.00;;;;;;5454205;26;19929;-69
2024/04/23 11:22:37;;;;;;;;;;;9.80;1.00;;;;;;5453130;26;20375;-69
2024/04/23 11:25:03;;;;;;;;;;;9.90;1.00;;;;;;5453709;26;19940;-69
2024/04/23 11:27:30;;;;;;;;;;;10.10;1.00;;;;;;5454145;26;19956;-69
2024/04/23 11:29:55;;;;;;;;;;;10.30;1.00;;;;;;5454136;26;19936;-70
2024/04/23 11:32:21;;;;;;;;;;;11.00;1.00;;;;;;5453181;26;19929;-69
2024/04/23 11:34:47;;;;;;;;;;;11.70;1.00;;;;;;5453855;26;19933;-70
2024/04/23 11:37:22;;;;;;;;;;;12.30;1.00;;;;;;5453674;26;19935;-69
2024/04/23 11:40:00;;;;;;;;;;;12.70;1.00;;;;;;5453719;26;19936;-69
2024/04/23 11:42:26;;;;;;;;;;;12.60;1.00;;;;;;5453337;26;19937;-69
2024/04/23 11:44:55;;;;;;;;;;;12.60;1.00;;;;;;5453832;26;20555;-69
2024/04/23 11:47:22;;;;;;;;;;;12.20;1.00;;;;;;5453713;26;19929;-70
2024/04/23 11:49:48;;;;;;;;;;;11.60;1.00;;;;;;5453573;26;19936;-69
2024/04/23 11:52:13;;;;;;;;;;;11.00;1.00;;;;;;5452983;26;19932;-70
2024/04/23 11:54:40;;;;;;;;;;;10.80;1.00;;;;;;5453358;26;19936;-69
2024/04/23 11:57:06;;;;;;;;;;;10.70;1.00;;;;;;5453713;26;20298;-70
2024/04/23 11:59:31;;;;;;;;;;;11.00;1.00;;;;;;5453275;26;19928;-69
2024/04/23 12:01:57;;;;;;;;;;;11.60;1.00;;;;;;5452678;26;20367;-71
2024/04/23 12:04:23;;;;;;;;;;;12.90;1.00;;;;;;5453376;26;19961;-70
2024/04/23 12:06:51;;;;;;;;;;;14.20;1.00;;;;;;5452433;26;19980;-70
2024/04/23 12:09:17;;;;;;;;;;;15.60;1.00;;;;;;5453283;26;19935;-71
2024/04/23 12:11:44;;;;;;;;;;;16.60;1.00;;;;;;5453262;26;19929;-70
2024/04/23 12:14:10;;;;;;;;;;;17.00;1.00;;;;;;5453258;26;19928;-70
2024/04/23 12:16:40;;;;;;;;;;;17.20;1.00;;;;;;5453172;26;20364;-71
2024/04/23 12:19:05;;;;;;;;;;;17.60;1.00;;;;;;5453649;26;19939;-70
2024/04/23 12:21:31;;;;;;;;;;;17.20;1.00;;;;;;5452431;26;19929;-72
2024/04/23 12:23:56;;;;;;;;;;;16.20;1.00;;;;;;5452960;26;19928;-70
2024/04/23 12:26:23;;;;;;;;;;;15.30;1.00;;;;;;5453372;26;19936;-69
2024/04/23 12:28:51;;;;;;;;;;;14.80;1.00;;;;;;5452967;26;19961;-70
2024/04/23 12:31:16;;;;;;;;;;;14.80;1.00;;;;;;5412245;26;20389;-70
2024/04/23 12:33:42;;;;;;;;;;;14.70;1.00;;;;;;5390473;26;19956;-69
2024/04/23 12:36:10;;;;;;;;;;;15.00;1.00;;;;;;5381563;26;19930;-72
2024/04/23 12:38:45;;;;;;;;;;;16.00;1.00;;;;;;5384139;26;19951;-73
2024/04/23 12:41:11;;;;;;;;;;;16.40;1.00;;;;;;5388552;26;20010;-74
2024/04/23 12:43:36;;;;;;;;;;;17.50;1.00;;;;;;5401680;26;19942;-73
2024/04/23 12:46:02;;;;;;;;;;;18.70;1.00;;;;;;5400232;26;20451;-74
2024/04/23 12:48:28;;;;;;;;;;;18.30;1.00;;;;;;5402911;26;19929;-72
2024/04/23 12:50:53;;;;;;;;;;;17.50;1.00;;;;;;5392532;26;19999;-74
2024/04/23 12:53:19;;;;;;;;;;;17.30;1.00;;;;;;5383661;26;19937;-74
2024/04/23 12:55:45;;;;;;;;;;;17.00;1.00;;;;;;5383595;26;20430;-73
2024/04/23 12:58:10;;;;;;;;;;;16.20;1.00;;;;;;5383781;26;19937;-73
2024/04/23 13:00:36;;;;;;;;;;;16.20;1.00;;;;;;5383135;26;19998;-73
2024/04/23 13:03:01;;;;;;;;;;;16.70;1.00;;;;;;5382365;26;19933;-74
2024/04/23 13:05:27;;;;;;;;;;;17.30;1.00;;;;;;5384307;26;19934;-72
2024/04/23 13:07:52;;;;;;;;;;;17.00;1.00;;;;;;5384165;26;20452;-74
2024/04/23 13:10:18;;;;;;;;;;;16.40;1.00;;;;;;5382731;26;19969;-71
2024/04/23 13:12:44;;;;;;;;;;;14.90;1.00;;;;;;5383146;26;19929;-73
2024/04/23 13:15:10;;;;;;;;;;;13.60;1.00;;;;;;5396965;26;19933;-73
2024/04/23 13:17:35;;;;;;;;;;;12.80;1.00;;;;;;5416766;26;19948;-74
2024/04/23 13:20:01;;;;;;;;;;;12.00;1.00;;;;;;5415298;26;20280;-74
2024/04/23 13:22:27;;;;;;;;;;;11.50;1.00;;;;;;5418585;26;19941;-74
2024/04/23 13:24:52;;;;;;;;;;;11.30;1.00;;;;;;5418398;26;19929;-74
2024/04/23 13:27:18;;;;;;;;;;;11.10;1.00;;;;;;5418966;26;19935;-73
2024/04/23 13:29:45;;;;;;;;;;;10.90;1.00;;;;;;5416695;26;19929;-74
2024/04/23 13:32:10;;;;;;;;;;;10.90;1.00;;;;;;5405473;26;19935;-73
2024/04/23 13:34:36;;;;;;;;;;;10.90;1.00;;;;;;5415025;26;19929;-73
2024/04/23 13:37:03;;;;;;;;;;;10.90;1.00;;;;;;5416637;26;19991;-74
2024/04/23 13:39:29;;;;;;;;;;;11.00;1.00;;;;;;5416104;26;19929;-73
2024/04/23 13:41:54;;;;;;;;;;;11.00;1.00;;;;;;5416002;26;19936;-70
2024/04/23 13:44:20;;;;;;;;;;;11.00;1.00;;;;;;5416010;26;20377;-73
2024/04/23 13:46:45;;;;;;;;;;;11.00;1.00;;;;;;5415624;26;19929;-71
2024/04/23 13:49:14;;;;;;;;;;;11.30;1.00;;;;;;5416030;26;19961;-72
2024/04/23 13:51:40;;;;;;;;;;;11.50;1.00;;;;;;5415619;26;19956;-72
2024/04/23 13:54:05;;;;;;;;;;;11.30;1.00;;;;;;5410028;26;19970;-72
2024/04/23 13:56:31;;;;;;;;;;;11.20;1.00;;;;;;5396279;26;20373;-71
2024/04/23 13:58:56;;;;;;;;;;;11.10;1.00;;;;;;5384778;26;19934;-72
2024/04/23 14:01:22;;;;;;;;;;;11.00;1.00;;;;;;5379187;26;19936;-71
2024/04/23 14:03:47;;;;;;;;;;;11.00;1.00;;;;;;5379820;26;19934;-70
2024/04/23 14:06:12;;;;;;;;;;;10.90;1.00;;;;;;5380400;26;19937;-71
2024/04/23 14:08:38;;;;;;;;;;;10.70;1.00;;;;;;5379717;26;19936;-70
2024/04/23 14:11:05;;;;;;;;;;;10.80;1.00;;;;;;5379871;26;20430;-71
2024/04/23 14:13:31;;;;;;;;;;;10.90;1.00;;;;;;5378914;26;19998;-70
2024/04/23 14:15:57;;;;;;;;;;;10.90;1.00;;;;;;5379620;26;19938;-70
2024/04/23 14:18:22;;;;;;;;;;;11.00;1.00;;;;;;5380407;26;19979;-72
2024/04/23 14:20:48;;;;;;;;;;;11.00;1.00;;;;;;5380444;26;20284;-71
2024/04/23 14:23:13;;;;;;;;;;;11.00;1.00;;;;;;5378816;26;19941;-71
2024/04/23 14:25:39;;;;;;;;;;;10.90;1.00;;;;;;5380217;26;20358;-72
2024/04/23 14:28:09;;;;;;;;;;;11.00;1.00;;;;;;5379901;26;19929;-72
2024/04/23 14:30:35;;;;;;;;;;;11.10;1.00;;;;;;5380689;26;19998;-74